Time;durP1;ratioP1;P1;durP2;ratioP2;P2;SDS_P1;SDS_P2;PMS_P1;PMS_P2;Temp;Humidity;BMP_temperature;BMP_pressure;BME280_temperature;BME280_humidity;BME280_pressure;Samples;Min_cycle;Max_cycle;Signal;HPM_P1;HPM_P2
2023/01/13 00:00:07;;;;;;;1.17;0.32;;;6.50;99.90;;;;;;10166239;23;20001;-82
2023/01/13 00:04:10;;;;;;;0.75;0.30;;;6.50;99.90;;;;;;10164440;23;20016;-82
2023/01/13 00:08:10;;;;;;;1.00;0.40;;;6.60;99.90;;;;;;10164090;23;20002;-81
2023/01/13 00:12:11;;;;;;;1.10;0.60;;;6.70;99.90;;;;;;10190196;23;20002;-81
2023/01/13 00:16:15;;;;;;;0.20;0.20;;;6.70;99.90;;;;;;10191567;23;20006;-82
2023/01/13 00:20:16;;;;;;;0.40;0.40;;;6.80;99.90;;;;;;10165041;23;20005;-81
2023/01/13 00:24:17;;;;;;;0.45;0.30;;;6.80;99.90;;;;;;10164049;23;20010;-81
2023/01/13 00:28:17;;;;;;;0.57;0.30;;;6.80;99.90;;;;;;10191706;23;20005;-82
2023/01/13 00:32:18;;;;;;;1.27;0.40;;;6.90;99.90;;;;;;10190879;23;20002;-81
2023/01/13 00:36:19;;;;;;;1.33;0.38;;;6.90;99.90;;;;;;10164154;23;20006;-81
2023/01/13 00:40:20;;;;;;;2.50;0.40;;;6.90;99.90;;;;;;10180241;23;20013;-82
2023/01/13 00:44:20;;;;;;;1.20;0.40;;;6.90;99.90;;;;;;10165019;23;20020;-82
2023/01/13 00:48:22;;;;;;;1.35;0.30;;;6.90;99.90;;;;;;10164764;23;20010;-82
2023/01/13 00:52:23;;;;;;;0.32;0.30;;;7.00;99.90;;;;;;10164767;23;20016;-82
2023/01/13 00:56:24;;;;;;;0.73;0.40;;;6.90;99.90;;;;;;10165126;23;20005;-81
2023/01/13 01:00:24;;;;;;;3.33;0.35;;;7.00;99.90;;;;;;10165249;23;20113;-82
2023/01/13 01:04:25;;;;;;;1.38;0.55;;;6.90;99.90;;;;;;10188907;23;20013;-82
2023/01/13 01:08:25;;;;;;;1.10;0.30;;;6.90;99.90;;;;;;10165027;23;20048;-82
2023/01/13 01:12:26;;;;;;;2.47;0.45;;;7.00;99.90;;;;;;10165353;23;20332;-81
2023/01/13 01:16:28;;;;;;;0.50;0.40;;;7.10;99.90;;;;;;10165460;23;20021;-81
2023/01/13 01:20:29;;;;;;;0.57;0.30;;;7.00;99.90;;;;;;10165563;23;20040;-81
2023/01/13 01:24:29;;;;;;;5.07;0.95;;;7.00;99.90;;;;;;10164282;23;20009;-82
2023/01/13 01:28:30;;;;;;;0.70;0.50;;;7.00;99.90;;;;;;10165182;23;20009;-82
2023/01/13 01:32:33;;;;;;;0.55;0.38;;;7.00;99.90;;;;;;10164832;23;20410;-82
2023/01/13 01:36:35;;;;;;;0.20;0.20;;;7.00;99.90;;;;;;10164254;23;20013;-82
2023/01/13 01:40:35;;;;;;;3.22;0.63;;;7.00;99.90;;;;;;10166505;23;20456;-82
2023/01/13 01:44:50;;;;;;;1.13;0.40;;;7.00;99.90;;;;;;10190633;23;20066;-81
2023/01/13 01:48:54;;;;;;;0.68;0.40;;;7.00;99.90;;;;;;10163333;23;20010;-82
2023/01/13 01:53:07;;;;;;;1.17;0.32;;;7.00;99.90;;;;;;10163731;23;20013;-82
2023/01/13 01:57:13;;;;;;;0.50;0.40;;;7.00;99.90;;;;;;10191021;23;20325;-81
2023/01/13 02:01:14;;;;;;;0.45;0.32;;;7.00;99.90;;;;;;10191254;23;20432;-82
2023/01/13 02:05:15;;;;;;;0.82;0.50;;;7.10;99.90;;;;;;10165226;23;20017;-82
2023/01/13 02:09:16;;;;;;;0.52;0.38;;;7.00;99.90;;;;;;10165061;23;20016;-82
2023/01/13 02:13:17;;;;;;;1.88;0.80;;;7.00;99.90;;;;;;10165575;23;20344;-82
2023/01/13 02:17:20;;;;;;;0.55;0.50;;;7.00;99.90;;;;;;10165501;23;20005;-82
2023/01/13 02:21:46;;;;;;;1.65;0.47;;;7.00;99.90;;;;;;10165304;23;20010;-82
2023/01/13 02:26:04;;;;;;;0.95;0.40;;;7.00;99.90;;;;;;10183239;23;20096;-82
2023/01/13 02:34:51;;;;;;;0.38;0.32;;;7.00;99.90;;;;;;10189937;23;20083;-82
2023/01/13 02:39:37;;;;;;;0.50;0.30;;;7.00;99.90;;;;;;10163248;23;20001;-82
2023/01/13 02:48:02;;;;;;;1.85;0.68;;;7.10;99.90;;;;;;10189910;23;20085;-81
2023/01/13 02:52:28;;;;;;;1.42;0.25;;;7.10;99.90;;;;;;10164686;23;20009;-82
2023/01/13 02:56:33;;;;;;;0.17;0.17;;;7.20;99.90;;;;;;10165360;23;20437;-82
2023/01/13 03:00:35;;;;;;;0.40;0.20;;;7.20;99.90;;;;;;10165696;23;20041;-82
2023/01/13 03:04:52;;;;;;;0.30;0.22;;;7.20;99.90;;;;;;10165479;23;20363;-81
2023/01/13 03:09:13;;;;;;;2.17;0.68;;;7.20;99.90;;;;;;10191452;23;20080;-82
2023/01/13 03:13:26;;;;;;;0.30;0.30;;;7.30;99.90;;;;;;10171106;23;20384;-82
2023/01/13 03:17:44;;;;;;;2.03;0.40;;;7.30;99.90;;;;;;10164550;23;20562;-82
2023/01/13 03:21:55;;;;;;;0.30;0.30;;;7.40;99.90;;;;;;10177206;23;20034;-81
2023/01/13 03:26:09;;;;;;;0.35;0.32;;;7.40;99.90;;;;;;10164626;23;20013;-82
2023/01/13 03:30:20;;;;;;;0.82;0.30;;;7.50;99.90;;;;;;10166232;23;20065;-82
2023/01/13 03:34:24;;;;;;;3.72;0.40;;;7.40;99.90;;;;;;10191803;23;20092;-82
2023/01/13 03:38:35;;;;;;;2.05;0.50;;;7.50;99.90;;;;;;10165438;23;20005;-82
2023/01/13 03:42:38;;;;;;;2.05;0.63;;;7.50;99.90;;;;;;10165098;23;20006;-81
2023/01/13 03:47:00;;;;;;;2.05;0.50;;;7.60;99.90;;;;;;10164599;23;20042;-82
2023/01/13 03:51:05;;;;;;;1.08;0.40;;;7.70;99.90;;;;;;10191781;23;20028;-81
2023/01/13 03:55:12;;;;;;;2.08;0.55;;;7.70;99.90;;;;;;10191722;23;20002;-82
2023/01/13 03:59:20;;;;;;;0.30;0.30;;;7.70;99.90;;;;;;10190470;23;20016;-82
2023/01/13 04:03:58;;;;;;;2.92;0.50;;;7.70;99.90;;;;;;10170986;23;20040;-82
2023/01/13 04:08:23;;;;;;;2.03;0.38;;;7.70;99.90;;;;;;10194515;23;20013;-82
2023/01/13 04:16:54;;;;;;;0.25;0.25;;;7.70;99.90;;;;;;10195081;23;20105;-82
2023/01/13 04:20:57;;;;;;;1.65;0.30;;;7.60;99.90;;;;;;10187792;23;20070;-82
2023/01/13 04:24:57;;;;;;;1.35;0.70;;;7.60;99.90;;;;;;10169562;23;20002;-82
2023/01/13 04:28:58;;;;;;;1.70;0.40;;;7.60;99.90;;;;;;10170343;23;20056;-81
2023/01/13 04:32:58;;;;;;;0.95;0.40;;;7.50;99.90;;;;;;10171386;23;20034;-82
2023/01/13 04:36:59;;;;;;;1.00;0.40;;;7.50;99.90;;;;;;10172440;23;20010;-82
2023/01/13 04:40:59;;;;;;;0.28;0.28;;;7.60;99.90;;;;;;10172826;23;20004;-82
2023/01/13 04:45:00;;;;;;;0.85;0.40;;;7.50;99.90;;;;;;10181297;23;20074;-81
2023/01/13 04:49:00;;;;;;;1.05;0.30;;;7.50;99.90;;;;;;10183461;23;20001;-81
2023/01/13 04:53:01;;;;;;;0.57;0.45;;;7.60;99.90;;;;;;10158883;23;20002;-80
2023/01/13 04:57:01;;;;;;;0.45;0.32;;;7.60;99.90;;;;;;10158838;23;20460;-81
2023/01/13 05:01:02;;;;;;;0.63;0.30;;;7.70;99.90;;;;;;10182552;23;20040;-81
2023/01/13 05:05:03;;;;;;;0.35;0.20;;;7.70;99.90;;;;;;10159631;23;20174;-81
2023/01/13 05:09:03;;;;;;;1.27;0.38;;;7.70;99.90;;;;;;10162133;23;20009;-80
2023/01/13 05:17:24;;;;;;;0.68;0.30;;;7.70;99.90;;;;;;10185775;23;20045;-81
2023/01/13 05:25:46;;;;;;;0.50;0.30;;;7.70;99.90;;;;;;10185223;23;20024;-81
2023/01/13 05:29:47;;;;;;;1.80;0.50;;;7.70;99.90;;;;;;10160855;23;20060;-81
2023/01/13 05:33:47;;;;;;;0.43;0.40;;;7.60;99.90;;;;;;10159933;23;20588;-83
2023/01/13 05:37:48;;;;;;;0.47;0.32;;;7.60;99.90;;;;;;10164353;23;20023;-82
2023/01/13 05:46:08;;;;;;;1.02;0.30;;;7.50;99.90;;;;;;10187546;23;20068;-83
2023/01/13 05:50:09;;;;;;;0.77;0.30;;;7.40;99.90;;;;;;10162637;23;20009;-83
2023/01/13 05:54:10;;;;;;;1.63;0.50;;;7.30;99.90;;;;;;10168240;23;20009;-82
2023/01/13 05:58:12;;;;;;;1.52;0.40;;;7.30;99.90;;;;;;10162070;23;20070;-82
2023/01/13 06:02:13;;;;;;;0.20;0.20;;;7.30;99.90;;;;;;10186811;23;20001;-83
2023/01/13 06:06:13;;;;;;;2.70;0.52;;;7.40;99.90;;;;;;10161094;23;20451;-82
2023/01/13 06:10:14;;;;;;;0.30;0.20;;;7.60;99.90;;;;;;10185926;23;20013;-83
2023/01/13 06:14:15;;;;;;;0.25;0.25;;;7.60;99.90;;;;;;10185580;23;20452;-83
2023/01/13 06:18:15;;;;;;;0.43;0.30;;;7.70;99.90;;;;;;10186542;23;20470;-82
2023/01/13 06:22:38;;;;;;;1.38;0.30;;;7.60;99.90;;;;;;10160057;23;20016;-83
2023/01/13 06:26:40;;;;;;;0.57;0.40;;;7.60;99.90;;;;;;10178675;23;20092;-83
2023/01/13 06:30:48;;;;;;;0.43;0.40;;;7.50;99.90;;;;;;10187119;23;20005;-83
2023/01/13 06:34:53;;;;;;;3.33;0.60;;;7.70;99.90;;;;;;10159277;23;20005;-82
2023/01/13 06:38:57;;;;;;;0.30;0.30;;;7.60;99.90;;;;;;10160407;23;20005;-82
2023/01/13 06:43:16;;;;;;;1.08;0.43;;;7.60;99.90;;;;;;10159291;23;20006;-82
2023/01/13 06:47:17;;;;;;;0.63;0.30;;;7.60;99.90;;;;;;10159543;23;20352;-83
2023/01/13 06:51:18;;;;;;;0.75;0.43;;;7.70;99.90;;;;;;10185582;23;20081;-81
2023/01/13 06:55:18;;;;;;;0.10;0.10;;;7.60;99.90;;;;;;10159098;23;20494;-82
2023/01/13 06:59:19;;;;;;;1.50;0.45;;;7.60;99.90;;;;;;10171365;23;20005;-82
2023/01/13 07:03:19;;;;;;;3.90;0.68;;;7.60;99.90;;;;;;10178230;23;20117;-82
2023/01/13 07:07:20;;;;;;;0.65;0.30;;;7.70;99.90;;;;;;10159259;23;20524;-82
2023/01/13 07:11:20;;;;;;;0.30;0.30;;;7.70;99.90;;;;;;10159575;23;20050;-82
2023/01/13 07:15:21;;;;;;;0.70;0.30;;;7.70;99.90;;;;;;10164194;23;20006;-82
2023/01/13 07:19:24;;;;;;;1.02;0.40;;;7.70;99.90;;;;;;10185204;23;20017;-83
2023/01/13 07:23:27;;;;;;;0.30;0.30;;;7.60;99.90;;;;;;10158900;23;20032;-83
2023/01/13 07:27:28;;;;;;;0.35;0.25;;;7.60;99.90;;;;;;10158860;23;20013;-83
2023/01/13 07:31:28;;;;;;;0.68;0.30;;;7.60;99.90;;;;;;10183596;23;20010;-83
2023/01/13 07:35:29;;;;;;;1.25;0.40;;;7.60;99.90;;;;;;10159364;23;20094;-82
2023/01/13 07:39:29;;;;;;;0.65;0.35;;;7.70;99.90;;;;;;10160753;23;20049;-83
2023/01/13 07:43:33;;;;;;;1.55;0.50;;;7.70;99.90;;;;;;10162344;23;20005;-82
2023/01/13 07:47:33;;;;;;;1.17;0.35;;;7.80;99.90;;;;;;10181312;23;20005;-82
2023/01/13 07:51:37;;;;;;;1.50;0.40;;;7.80;99.90;;;;;;10163094;23;20009;-82
2023/01/13 07:55:42;;;;;;;0.45;0.28;;;7.80;99.90;;;;;;10183983;23;20010;-83
2023/01/13 07:59:43;;;;;;;0.95;0.30;;;7.80;99.90;;;;;;10162680;23;20044;-83
2023/01/13 08:03:44;;;;;;;1.02;0.60;;;7.90;99.90;;;;;;10188080;23;20047;-82
2023/01/13 08:07:44;;;;;;;2.00;0.30;;;7.90;99.90;;;;;;10163174;23;20398;-83
2023/01/13 08:13:16;;;;;;;4.13;0.60;;;8.00;99.90;;;;;;10189596;23;20012;-83
2023/01/13 08:16:08;;;;;;;1.40;0.50;;;8.00;99.90;;;;;;10189314;23;20076;-83
2023/01/13 08:20:09;;;;;;;0.57;0.40;;;7.90;99.90;;;;;;10163375;23;20495;-83
2023/01/13 08:24:10;;;;;;;1.10;0.30;;;8.00;99.90;;;;;;10186122;23;20429;-81
2023/01/13 08:28:11;;;;;;;0.40;0.30;;;8.00;99.90;;;;;;10161887;23;20074;-82
2023/01/13 08:32:12;;;;;;;0.50;0.25;;;8.00;99.90;;;;;;10166431;23;20013;-82
2023/01/13 08:36:12;;;;;;;0.68;0.52;;;7.90;99.90;;;;;;10173120;23;20392;-82
2023/01/13 08:40:16;;;;;;;0.57;0.38;;;7.90;99.90;;;;;;10180646;23;20017;-82
2023/01/13 08:44:16;;;;;;;1.95;0.30;;;7.90;99.90;;;;;;10160900;23;20020;-82
2023/01/13 08:48:17;;;;;;;0.20;0.20;;;7.90;99.90;;;;;;10160696;23;20564;-82
2023/01/13 08:52:17;;;;;;;0.70;0.40;;;7.90;99.90;;;;;;10172478;23;20009;-82
2023/01/13 08:56:18;;;;;;;0.60;0.30;;;8.00;99.90;;;;;;10159399;23;20009;-83
2023/01/13 09:00:19;;;;;;;1.30;0.30;;;8.00;99.90;;;;;;10160838;23;20440;-82
2023/01/13 09:04:22;;;;;;;0.50;0.30;;;8.20;99.90;;;;;;10160733;23;20025;-82
2023/01/13 09:08:23;;;;;;;0.63;0.32;;;8.30;99.90;;;;;;10186084;23;20061;-82
2023/01/13 09:16:43;;;;;;;0.60;0.43;;;8.40;99.90;;;;;;10187248;23;20080;-82
2023/01/13 09:20:44;;;;;;;1.52;0.82;;;8.50;99.90;;;;;;10161429;23;20001;-82
2023/01/13 09:24:44;;;;;;;0.65;0.40;;;8.70;99.90;;;;;;10186448;23;20344;-83
2023/01/13 09:28:45;;;;;;;0.47;0.30;;;8.70;99.90;;;;;;10160965;23;20021;-82
2023/01/13 09:32:46;;;;;;;1.50;0.90;;;9.00;99.90;;;;;;10161694;23;20005;-83
2023/01/13 09:36:46;;;;;;;2.00;0.40;;;9.10;99.90;;;;;;10187225;23;20436;-81
2023/01/13 09:40:48;;;;;;;1.02;0.38;;;9.10;99.90;;;;;;10161143;23;20344;-82
2023/01/13 09:44:58;;;;;;;1.35;0.40;;;9.40;99.90;;;;;;10187577;23;20378;-83
2023/01/13 09:49:02;;;;;;;1.75;0.65;;;9.70;99.90;;;;;;10161123;23;20072;-83
2023/01/13 09:53:06;;;;;;;0.57;0.20;;;10.80;99.90;;;;;;10161314;23;20072;-82
2023/01/13 09:57:13;;;;;;;1.00;0.40;;;10.90;99.90;;;;;;10186967;23;20346;-82
2023/01/13 10:01:34;;;;;;;2.15;0.40;;;10.70;99.90;;;;;;10192088;23;20104;-83
2023/01/13 10:05:36;;;;;;;1.00;0.35;;;10.50;99.90;;;;;;10159539;23;20014;-82
2023/01/13 10:09:46;;;;;;;0.30;0.20;;;10.40;99.90;;;;;;10175176;23;20405;-82
2023/01/13 10:13:52;;;;;;;0.50;0.30;;;10.20;99.90;;;;;;10184131;23;20045;-82
2023/01/13 10:18:06;;;;;;;0.52;0.22;;;10.60;99.90;;;;;;10185804;23;20684;-82
2023/01/13 10:22:36;;;;;;;0.30;0.20;;;10.90;99.90;;;;;;10159044;23;20010;-83
2023/01/13 10:27:03;;;;;;;0.40;0.20;;;11.30;99.90;;;;;;10159040;23;20173;-83
2023/01/13 10:31:10;;;;;;;0.20;0.20;;;10.90;99.90;;;;;;10184447;23;20325;-83
2023/01/13 10:35:11;;;;;;;0.47;0.32;;;10.90;99.90;;;;;;10184703;23;20009;-83
2023/01/13 10:39:15;;;;;;;1.55;0.30;;;11.10;99.90;;;;;;10157956;23;20012;-83
2023/01/13 10:43:16;;;;;;;0.60;0.30;;;11.00;99.90;;;;;;10156759;23;19998;-82
2023/01/13 10:47:26;;;;;;;0.50;0.30;;;10.80;99.90;;;;;;10184308;23;20016;-82
2023/01/13 10:51:38;;;;;;;0.75;0.30;;;10.60;99.90;;;;;;10170443;23;20057;-83
2023/01/13 10:55:40;;;;;;;1.02;0.22;;;10.50;99.90;;;;;;10168895;23;20447;-82
2023/01/13 10:59:41;;;;;;;0.10;0.10;;;10.20;99.90;;;;;;10185660;23;20005;-82
2023/01/13 11:03:44;;;;;;;1.48;0.32;;;10.00;99.90;;;;;;10159351;23;20037;-83
2023/01/13 11:07:51;;;;;;;0.17;0.10;;;10.00;99.90;;;;;;10158522;23;20009;-83
2023/01/13 11:11:55;;;;;;;0.75;0.40;;;10.40;99.90;;;;;;10184348;23;20012;-83
2023/01/13 11:16:14;;;;;;;0.98;0.20;;;11.20;99.90;;;;;;10177103;23;20088;-83
2023/01/13 11:20:30;;;;;;;1.50;0.30;;;11.50;99.90;;;;;;10163040;23;20053;-83
2023/01/13 11:24:53;;;;;;;1.35;0.28;;;11.10;99.90;;;;;;10160973;23;20010;-82
2023/01/13 11:29:08;;;;;;;0.32;0.28;;;10.70;99.90;;;;;;10161533;23;20053;-83
2023/01/13 11:33:08;;;;;;;0.38;0.30;;;11.40;99.90;;;;;;10161342;23;20010;-83
2023/01/13 11:37:31;;;;;;;0.38;0.30;;;11.80;99.90;;;;;;10161819;23;20010;-83
2023/01/13 11:41:34;;;;;;;0.77;0.30;;;11.60;99.90;;;;;;10186736;23;20459;-82
2023/01/13 11:45:44;;;;;;;1.75;0.20;;;11.20;99.90;;;;;;10161236;23;20009;-84
2023/01/13 11:49:47;;;;;;;0.10;0.10;;;10.70;99.90;;;;;;10183247;23;20077;-83
2023/01/13 11:54:03;;;;;;;1.65;0.47;;;10.20;99.90;;;;;;10182481;23;19997;-83
2023/01/13 11:58:25;;;;;;;1.98;0.28;;;10.80;99.90;;;;;;10179518;23;20052;-82
2023/01/13 12:03:09;;;;;;;0.20;0.20;;;11.90;99.90;;;;;;10163733;23;20006;-82
2023/01/13 12:07:18;;;;;;;0.20;0.20;;;12.30;99.90;;;;;;10162280;23;20440;-83
2023/01/13 12:11:32;;;;;;;0.30;0.30;;;12.60;99.90;;;;;;10165548;23;20491;-83
2023/01/13 12:15:38;;;;;;;0.10;0.10;;;12.70;99.90;;;;;;10187918;23;20002;-86
2023/01/13 12:19:47;;;;;;;0.98;0.20;;;12.40;99.90;;;;;;10161606;23;20013;-87
2023/01/13 12:24:00;;;;;;;0.32;0.15;;;11.10;99.90;;;;;;10178943;23;20033;-87
2023/01/13 12:28:10;;;;;;;0.22;0.20;;;10.80;99.90;;;;;;10167390;23;20032;-86
2023/01/13 12:32:13;;;;;;;;;;;10.40;99.90;;;;;;10162387;23;20044;-85
2023/01/13 12:36:52;;;;;;;0.05;0.05;;;10.00;99.90;;;;;;10161696;23;19920;-86
2023/01/13 12:41:08;;;;;;;0.20;0.20;;;9.60;99.90;;;;;;10162285;23;20008;-85
2023/01/13 12:45:08;;;;;;;0.50;0.30;;;9.70;99.90;;;;;;10161821;23;20061;-84
2023/01/13 12:49:44;;;;;;;0.35;0.20;;;9.80;99.90;;;;;;10160655;23;20445;-85
2023/01/13 12:53:45;;;;;;;0.10;0.10;;;9.60;99.90;;;;;;10158744;23;20073;-85
2023/01/13 12:58:27;;;;;;;0.13;0.13;;;9.60;99.90;;;;;;10158144;23;20009;-85
2023/01/13 13:02:29;;;;;;;0.10;0.10;;;9.60;99.90;;;;;;10172755;23;20088;-84
2023/01/13 13:06:31;;;;;;;0.95;0.20;;;10.00;99.90;;;;;;10176699;23;20014;-83
2023/01/13 13:10:39;;;;;;;0.15;0.15;;;10.20;99.90;;;;;;10181181;23;20005;-84
2023/01/13 13:14:39;;;;;;;0.95;0.10;;;8.30;99.90;;;;;;10188696;23;19997;-84
2023/01/13 13:18:41;;;;;;;0.30;0.30;;;6.80;99.90;;;;;;10163915;23;20017;-84
2023/01/13 13:22:49;;;;;;;0.20;0.10;;;5.80;99.90;;;;;;10159942;23;20005;-83
2023/01/13 13:26:50;;;;;;;0.47;0.35;;;5.70;99.90;;;;;;10157686;23;20014;-84
2023/01/13 13:31:06;;;;;;;0.93;0.20;;;5.80;99.90;;;;;;10185382;23;20028;-83
2023/01/13 13:35:34;;;;;;;0.20;0.20;;;5.80;99.90;;;;;;10184113;23;20469;-83
2023/01/13 13:48:24;;;;;;;0.30;0.05;;;5.90;99.90;;;;;;10185047;23;20017;-83
2023/01/13 13:52:37;;;;;;;0.10;0.10;;;5.70;99.90;;;;;;10171857;23;20006;-84
2023/01/13 13:56:42;;;;;;;0.43;0.10;;;5.80;99.90;;;;;;10183416;23;20001;-83
2023/01/13 14:00:48;;;;;;;0.35;0.10;;;5.90;99.90;;;;;;10183514;23;20041;-84
2023/01/13 14:04:48;;;;;;;0.05;0.05;;;5.90;99.90;;;;;;10181426;23;20014;-83
2023/01/13 14:08:52;;;;;;;0.80;0.20;;;5.90;99.90;;;;;;10186186;23;20081;-84
2023/01/13 14:12:53;;;;;;;0.85;0.40;;;5.80;99.90;;;;;;10159674;23;20057;-84
2023/01/13 14:16:54;;;;;;;1.45;0.20;;;5.80;99.90;;;;;;10159732;23;20001;-83
2023/01/13 14:21:11;;;;;;;0.85;0.30;;;5.80;99.90;;;;;;10186552;23;20003;-83
2023/01/13 14:25:31;;;;;;;1.42;0.20;;;5.80;99.90;;;;;;10159999;23;20021;-83
2023/01/13 14:29:32;;;;;;;0.40;0.10;;;5.90;99.90;;;;;;10164065;23;20092;-84
2023/01/13 14:33:37;;;;;;;1.42;0.38;;;5.80;99.90;;;;;;10168667;23;20016;-84
2023/01/13 14:37:40;;;;;;;0.45;0.30;;;5.90;99.90;;;;;;10166304;23;20016;-84
2023/01/13 14:41:41;;;;;;;2.60;1.25;;;5.90;99.90;;;;;;10166310;23;20084;-85
2023/01/13 14:45:56;;;;;;;0.70;0.50;;;5.90;99.90;;;;;;10167836;23;20017;-84
2023/01/13 14:50:27;;;;;;;1.00;0.50;;;6.00;99.90;;;;;;10182822;23;20002;-84
2023/01/13 14:54:36;;;;;;;0.88;0.75;;;6.00;99.90;;;;;;10162159;23;20009;-84
2023/01/13 14:58:37;;;;;;;0.57;0.30;;;5.80;99.90;;;;;;10161793;23;20012;-85
2023/01/13 15:02:44;;;;;;;1.83;0.22;;;5.70;99.90;;;;;;10165097;23;20100;-84
2023/01/13 15:06:46;;;;;;;0.55;0.30;;;5.80;99.90;;;;;;10166033;23;20111;-85
2023/01/13 15:10:59;;;;;;;0.38;0.30;;;5.70;99.90;;;;;;10193115;23;20325;-84
2023/01/13 15:14:59;;;;;;;0.85;0.35;;;5.60;99.90;;;;;;10168822;23;20014;-86
2023/01/13 15:19:00;;;;;;;0.52;0.47;;;5.40;99.90;;;;;;10176625;23;20463;-83
2023/01/13 15:23:01;;;;;;;0.75;0.50;;;5.10;99.90;;;;;;10181661;23;20593;-83
2023/01/13 15:27:11;;;;;;;2.50;1.40;;;4.80;99.90;;;;;;10195032;23;20351;-83
2023/01/13 15:31:11;;;;;;;0.93;0.63;;;4.60;99.90;;;;;;10169596;23;20005;-84
2023/01/13 15:35:13;;;;;;;0.55;0.50;;;4.70;99.90;;;;;;10170712;23;20068;-84
2023/01/13 15:39:14;;;;;;;0.52;0.52;;;4.90;99.90;;;;;;10170484;23;20002;-84
2023/01/13 15:47:36;;;;;;;1.20;0.50;;;4.70;99.90;;;;;;10197171;23;20132;-84
2023/01/13 15:51:37;;;;;;;1.95;0.63;;;4.90;99.90;;;;;;10170965;23;20013;-84
2023/01/13 15:55:39;;;;;;;0.47;0.30;;;5.00;99.90;;;;;;10194280;23;19993;-83
2023/01/13 15:59:39;;;;;;;0.32;0.15;;;5.20;99.90;;;;;;10164008;23;20337;-83
2023/01/13 16:03:40;;;;;;;1.58;0.40;;;5.50;99.90;;;;;;10192382;23;20016;-83
2023/01/13 16:07:40;;;;;;;0.35;0.15;;;5.80;99.90;;;;;;10163184;23;20017;-84
2023/01/13 16:11:41;;;;;;;0.95;0.40;;;6.10;99.90;;;;;;10162727;23;20027;-83
2023/01/13 16:15:48;;;;;;;0.30;0.20;;;6.40;99.90;;;;;;10150259;23;20005;-80
2023/01/13 16:19:49;;;;;;;0.30;0.22;;;6.60;99.90;;;;;;10158709;23;20035;-80
2023/01/13 16:23:50;;;;;;;2.38;0.30;;;6.70;99.90;;;;;;10160223;23;20010;-81
2023/01/13 16:27:51;;;;;;;3.55;1.05;;;6.80;99.90;;;;;;10161100;23;20014;-81
2023/01/13 16:31:52;;;;;;;1.23;0.50;;;6.90;99.90;;;;;;10159602;23;20009;-80
2023/01/13 16:35:52;;;;;;;2.72;0.50;;;7.00;99.90;;;;;;10162815;23;20005;-81
2023/01/13 16:39:54;;;;;;;1.95;0.95;;;7.00;99.90;;;;;;10182916;23;19998;-81
2023/01/13 16:43:54;;;;;;;12.70;4.53;;;7.10;99.90;;;;;;10182751;23;20009;-81
2023/01/13 16:47:55;;;;;;;0.63;0.40;;;7.00;99.90;;;;;;10159351;23;20348;-81
2023/01/13 16:51:56;;;;;;;0.45;0.25;;;7.00;99.90;;;;;;10161878;23;20016;-81
2023/01/13 16:55:56;;;;;;;1.98;0.85;;;6.90;99.90;;;;;;10157460;23;20448;-81
2023/01/13 16:59:57;;;;;;;0.55;0.30;;;6.80;99.90;;;;;;10161513;23;20048;-81
2023/01/13 17:03:58;;;;;;;0.73;0.45;;;6.60;99.90;;;;;;10160443;23;20076;-81
2023/01/13 17:07:59;;;;;;;0.50;0.40;;;6.40;99.90;;;;;;10188316;23;20088;-81
2023/01/13 17:12:00;;;;;;;1.38;0.50;;;6.10;99.90;;;;;;10187870;23;20088;-81
2023/01/13 17:16:00;;;;;;;2.25;1.30;;;6.00;99.90;;;;;;10188530;23;20121;-82
2023/01/13 17:20:01;;;;;;;0.88;0.65;;;6.00;99.90;;;;;;10186994;23;20080;-80
2023/01/13 17:24:04;;;;;;;0.20;0.20;;;5.80;99.90;;;;;;10160900;23;20005;-80
2023/01/13 17:28:05;;;;;;;1.05;0.30;;;5.70;99.90;;;;;;10183439;23;20005;-81
2023/01/13 17:32:05;;;;;;;0.98;0.30;;;5.60;99.90;;;;;;10159143;23;20005;-80
2023/01/13 17:36:06;;;;;;;1.23;0.73;;;5.40;99.90;;;;;;10158802;23;20009;-81
2023/01/13 17:40:07;;;;;;;1.83;0.60;;;5.30;99.90;;;;;;10160194;23;20084;-81
2023/01/13 17:44:11;;;;;;;0.43;0.30;;;5.20;99.90;;;;;;10183916;23;20031;-81
2023/01/13 17:48:12;;;;;;;0.82;0.60;;;5.10;99.90;;;;;;10159026;23;20016;-81
2023/01/13 17:52:12;;;;;;;1.05;0.30;;;5.10;99.90;;;;;;10168096;23;20013;-82
2023/01/13 17:56:14;;;;;;;0.43;0.30;;;5.10;99.90;;;;;;10181909;23;20009;-82
2023/01/13 18:00:19;;;;;;;0.50;0.22;;;5.20;99.90;;;;;;10174493;23;20073;-81
2023/01/13 18:04:31;;;;;;;1.38;0.25;;;5.30;99.90;;;;;;10185635;23;20104;-80
2023/01/13 18:08:32;;;;;;;0.73;0.30;;;5.30;99.90;;;;;;10159569;23;20016;-79
2023/01/13 18:12:33;;;;;;;1.27;0.40;;;5.30;99.90;;;;;;10159748;23;20006;-80
2023/01/13 18:16:34;;;;;;;0.20;0.20;;;5.20;99.90;;;;;;10183726;23;20006;-82
2023/01/13 18:29:12;;;;;;;0.35;0.28;;;5.20;99.90;;;;;;10185802;23;20044;-82
2023/01/13 18:33:13;;;;;;;1.27;0.40;;;5.20;99.90;;;;;;10161476;23;20322;-82
2023/01/13 18:37:15;;;;;;;1.15;0.40;;;5.30;99.90;;;;;;10161090;23;20077;-81
2023/01/13 18:45:36;;;;;;;0.40;0.30;;;5.30;99.90;;;;;;10178722;23;20049;-81
2023/01/13 18:49:36;;;;;;;3.15;0.40;;;5.40;99.90;;;;;;10156049;23;20437;-82
2023/01/13 18:53:37;;;;;;;0.68;0.28;;;5.30;99.90;;;;;;10155801;23;20005;-82
2023/01/13 18:57:40;;;;;;;2.13;0.30;;;5.40;99.90;;;;;;10177532;23;20464;-81
2023/01/13 19:01:41;;;;;;;0.95;0.30;;;5.50;99.90;;;;;;10158075;23;20009;-81
2023/01/13 19:05:42;;;;;;;0.60;0.40;;;5.50;99.90;;;;;;10160074;23;20025;-81
2023/01/13 19:09:42;;;;;;;1.10;0.43;;;5.60;99.90;;;;;;10157831;23;20010;-80
2023/01/13 19:13:43;;;;;;;0.00;0.00;;;5.50;99.90;;;;;;10185112;23;20538;-80
2023/01/13 19:17:44;;;;;;;0.85;0.20;;;5.40;99.90;;;;;;10158507;23;20029;-81
2023/01/13 19:21:45;;;;;;;0.10;0.10;;;5.10;99.90;;;;;;10187476;23;20001;-81
2023/01/13 19:25:45;;;;;;;0.60;0.30;;;4.50;99.90;;;;;;10187378;23;20433;-81
2023/01/13 19:29:48;;;;;;;0.52;0.13;;;4.30;99.90;;;;;;10162212;23;20012;-82
2023/01/13 19:33:48;;;;;;;0.08;0.08;;;4.30;99.90;;;;;;10162847;23;20382;-80
2023/01/13 19:37:49;;;;;;;0.10;0.10;;;4.30;99.90;;;;;;10167317;23;20020;-80
2023/01/13 19:46:09;;;;;;;0.10;0.08;;;4.20;99.90;;;;;;10192016;23;20044;-82
2023/01/13 19:50:10;;;;;;;0.25;0.10;;;4.00;99.90;;;;;;10169885;23;20006;-83
2023/01/13 19:54:11;;;;;;;0.03;0.00;;;3.80;99.90;;;;;;10165546;23;20032;-83
2023/01/13 19:58:11;;;;;;;0.10;0.00;;;3.50;99.90;;;;;;10175305;23;20027;-82
2023/01/13 20:02:14;;;;;;;0.15;0.15;;;3.20;99.90;;;;;;10166100;23;20017;-83
2023/01/13 20:06:15;;;;;;;0.08;0.08;;;2.80;99.90;;;;;;10165526;23;20546;-83
2023/01/13 20:10:19;;;;;;;0.75;0.17;;;2.60;99.90;;;;;;10184887;23;20009;-83
2023/01/13 20:14:20;;;;;;;0.00;0.00;;;2.40;99.90;;;;;;10192589;23;20265;-83
2023/01/13 20:18:21;;;;;;;0.60;0.10;;;2.50;99.90;;;;;;10166720;23;20010;-83
2023/01/13 20:22:21;;;;;;;0.15;0.10;;;2.30;99.90;;;;;;10166649;23;20463;-83
2023/01/13 20:26:22;;;;;;;0.30;0.20;;;2.10;99.90;;;;;;10193518;23;20005;-83
2023/01/13 20:30:22;;;;;;;0.80;0.15;;;2.30;99.90;;;;;;10168727;23;20092;-83
2023/01/13 20:34:23;;;;;;;0.10;0.10;;;2.30;99.90;;;;;;10168929;23;20009;-83
2023/01/13 20:38:24;;;;;;;0.20;0.15;;;2.00;99.90;;;;;;10195921;23;20029;-83
2023/01/13 20:42:27;;;;;;;0.63;0.20;;;1.80;99.90;;;;;;10168637;23;20318;-83
2023/01/13 20:46:28;;;;;;;0.00;0.00;;;1.60;99.90;;;;;;10195773;23;20006;-83
2023/01/13 20:50:28;;;;;;;1.45;0.30;;;1.70;99.90;;;;;;10185766;23;20013;-83
2023/01/13 20:54:29;;;;;;;0.15;0.10;;;1.80;99.90;;;;;;10196637;23;20002;-83
2023/01/13 20:58:30;;;;;;;0.17;0.15;;;1.80;99.90;;;;;;10197018;23;20080;-83
2023/01/13 21:02:30;;;;;;;1.38;0.30;;;1.60;99.90;;;;;;10171615;23;20008;-83
2023/01/13 21:06:31;;;;;;;1.45;0.17;;;1.20;99.90;;;;;;10178029;23;20024;-83
2023/01/13 21:10:32;;;;;;;0.20;0.20;;;1.10;99.90;;;;;;10180689;23;20034;-83
2023/01/13 21:19:09;;;;;;;0.75;0.40;;;1.20;99.90;;;;;;10199460;23;20074;-83
2023/01/13 21:23:10;;;;;;;1.42;0.28;;;1.50;99.90;;;;;;10207800;23;20096;-82
2023/01/13 21:27:10;;;;;;;0.20;0.20;;;1.90;99.90;;;;;;10190718;23;20056;-84
2023/01/13 21:31:11;;;;;;;0.30;0.30;;;2.20;99.90;;;;;;10181996;23;20348;-83
2023/01/13 21:35:13;;;;;;;0.35;0.35;;;2.50;99.90;;;;;;10164977;23;20029;-83
2023/01/13 21:39:14;;;;;;;0.98;0.47;;;2.60;99.90;;;;;;10190846;23;20002;-83
2023/01/13 21:47:49;;;;;;;0.17;0.17;;;2.70;99.90;;;;;;10190354;23;20040;-83
2023/01/13 21:51:50;;;;;;;0.65;0.47;;;2.80;99.90;;;;;;10163402;23;20006;-83
2023/01/13 21:55:51;;;;;;;1.70;0.40;;;2.80;99.90;;;;;;10160730;23;20097;-82
2023/01/13 21:59:51;;;;;;;0.30;0.30;;;2.90;99.90;;;;;;10181679;23;20048;-83
2023/01/13 22:08:12;;;;;;;0.57;0.50;;;2.70;99.90;;;;;;10201291;23;20043;-80
2023/01/13 22:12:14;;;;;;;0.47;0.28;;;2.90;99.90;;;;;;10215469;23;20034;-81
2023/01/13 22:16:14;;;;;;;1.38;0.50;;;3.00;99.90;;;;;;10239642;23;20005;-81
2023/01/13 22:20:16;;;;;;;0.10;0.10;;;3.20;99.90;;;;;;10194019;23;20012;-81
2023/01/13 22:24:17;;;;;;;0.38;0.28;;;3.40;99.90;;;;;;10176079;23;20089;-80